sensor_id;sensor_type;location;lat;lon;timestamp;P1;durP1;ratioP1;P2;durP2;ratioP2
32295;SDS011;18781;51.550;5.418;2023-05-16T00:01:55;28.33;;;4.15;;
32295;SDS011;18781;51.550;5.418;2023-05-16T00:04:21;21.58;;;3.72;;
32295;SDS011;18781;51.550;5.418;2023-05-16T00:06:47;20.77;;;3.95;;
32295;SDS011;18781;51.550;5.418;2023-05-16T00:09:13;25.13;;;4.80;;
32295;SDS011;18781;51.550;5.418;2023-05-16T00:11:38;25.35;;;3.60;;
32295;SDS011;18781;51.550;5.418;2023-05-16T00:14:04;21.98;;;3.42;;
32295;SDS011;18781;51.550;5.418;2023-05-16T00:16:30;30.13;;;4.25;;
32295;SDS011;18781;51.550;5.418;2023-05-16T00:18:56;28.20;;;3.55;;
32295;SDS011;18781;51.550;5.418;2023-05-16T00:21:24;36.45;;;4.95;;
32295;SDS011;18781;51.550;5.418;2023-05-16T00:23:50;22.25;;;3.60;;
32295;SDS011;18781;51.550;5.418;2023-05-16T00:26:16;33.33;;;4.50;;
32295;SDS011;18781;51.550;5.418;2023-05-16T00:28:42;28.13;;;4.10;;
32295;SDS011;18781;51.550;5.418;2023-05-16T00:31:08;20.80;;;3.78;;
32295;SDS011;18781;51.550;5.418;2023-05-16T00:33:34;26.58;;;4.32;;
32295;SDS011;18781;51.550;5.418;2023-05-16T00:35:59;23.23;;;4.10;;
32295;SDS011;18781;51.550;5.418;2023-05-16T00:38:25;23.00;;;3.60;;
32295;SDS011;18781;51.550;5.418;2023-05-16T00:40:51;28.55;;;3.85;;
32295;SDS011;18781;51.550;5.418;2023-05-16T00:43:17;32.13;;;4.22;;
32295;SDS011;18781;51.550;5.418;2023-05-16T00:45:42;27.00;;;3.80;;
32295;SDS011;18781;51.550;5.418;2023-05-16T00:48:08;26.98;;;3.72;;
32295;SDS011;18781;51.550;5.418;2023-05-16T00:50:36;36.70;;;4.65;;
32295;SDS011;18781;51.550;5.418;2023-05-16T00:53:02;29.20;;;3.78;;
32295;SDS011;18781;51.550;5.418;2023-05-16T00:55:28;31.90;;;3.80;;
32295;SDS011;18781;51.550;5.418;2023-05-16T00:57:56;27.13;;;3.90;;
32295;SDS011;18781;51.550;5.418;2023-05-16T01:00:24;22.60;;;3.47;;
32295;SDS011;18781;51.550;5.418;2023-05-16T01:02:50;25.75;;;3.80;;
32295;SDS011;18781;51.550;5.418;2023-05-16T01:05:17;27.13;;;3.50;;
32295;SDS011;18781;51.550;5.418;2023-05-16T01:07:44;26.42;;;4.07;;
32295;SDS011;18781;51.550;5.418;2023-05-16T01:10:09;26.42;;;3.47;;
32295;SDS011;18781;51.550;5.418;2023-05-16T01:12:36;25.50;;;3.65;;
32295;SDS011;18781;51.550;5.418;2023-05-16T01:15:24;22.38;;;3.65;;
32295;SDS011;18781;51.550;5.418;2023-05-16T01:20:47;28.25;;;4.00;;
32295;SDS011;18781;51.550;5.418;2023-05-16T01:23:46;32.63;;;3.45;;
32295;SDS011;18781;51.550;5.418;2023-05-16T01:28:44;18.50;;;3.20;;
32295;SDS011;18781;51.550;5.418;2023-05-16T01:31:10;23.02;;;3.75;;
32295;SDS011;18781;51.550;5.418;2023-05-16T01:33:36;27.50;;;3.83;;
32295;SDS011;18781;51.550;5.418;2023-05-16T01:44:05;19.13;;;3.33;;
32295;SDS011;18781;51.550;5.418;2023-05-16T01:46:36;21.13;;;3.15;;
32295;SDS011;18781;51.550;5.418;2023-05-16T01:51:41;20.13;;;3.85;;
32295;SDS011;18781;51.550;5.418;2023-05-16T01:54:10;27.10;;;3.92;;
32295;SDS011;18781;51.550;5.418;2023-05-16T01:56:37;20.70;;;3.83;;
32295;SDS011;18781;51.550;5.418;2023-05-16T01:59:06;30.80;;;3.80;;
32295;SDS011;18781;51.550;5.418;2023-05-16T02:01:32;29.48;;;2.85;;
32295;SDS011;18781;51.550;5.418;2023-05-16T02:03:58;16.20;;;2.90;;
32295;SDS011;18781;51.550;5.418;2023-05-16T02:06:24;21.08;;;3.33;;
32295;SDS011;18781;51.550;5.418;2023-05-16T02:08:50;23.13;;;3.22;;
32295;SDS011;18781;51.550;5.418;2023-05-16T02:11:16;17.88;;;3.10;;
32295;SDS011;18781;51.550;5.418;2023-05-16T02:13:41;15.55;;;3.20;;
32295;SDS011;18781;51.550;5.418;2023-05-16T02:16:09;15.90;;;2.90;;
32295;SDS011;18781;51.550;5.418;2023-05-16T02:18:35;25.80;;;4.03;;
32295;SDS011;18781;51.550;5.418;2023-05-16T02:21:00;14.32;;;2.53;;
32295;SDS011;18781;51.550;5.418;2023-05-16T02:23:26;18.83;;;3.83;;
32295;SDS011;18781;51.550;5.418;2023-05-16T02:25:51;23.42;;;3.53;;
32295;SDS011;18781;51.550;5.418;2023-05-16T02:28:17;18.38;;;2.75;;
32295;SDS011;18781;51.550;5.418;2023-05-16T02:30:42;22.73;;;2.90;;
32295;SDS011;18781;51.550;5.418;2023-05-16T02:33:08;24.50;;;3.10;;
32295;SDS011;18781;51.550;5.418;2023-05-16T02:35:34;17.63;;;2.80;;
32295;SDS011;18781;51.550;5.418;2023-05-16T02:38:00;27.95;;;3.33;;
32295;SDS011;18781;51.550;5.418;2023-05-16T02:40:26;21.92;;;3.22;;
32295;SDS011;18781;51.550;5.418;2023-05-16T02:42:51;19.80;;;3.13;;
32295;SDS011;18781;51.550;5.418;2023-05-16T02:45:17;20.08;;;3.08;;
32295;SDS011;18781;51.550;5.418;2023-05-16T02:47:43;24.40;;;3.70;;
32295;SDS011;18781;51.550;5.418;2023-05-16T02:50:08;20.35;;;3.25;;
32295;SDS011;18781;51.550;5.418;2023-05-16T02:52:34;18.67;;;3.22;;
32295;SDS011;18781;51.550;5.418;2023-05-16T02:55:00;19.30;;;3.22;;
32295;SDS011;18781;51.550;5.418;2023-05-16T02:57:25;21.00;;;3.33;;
32295;SDS011;18781;51.550;5.418;2023-05-16T02:59:51;19.45;;;2.78;;
32295;SDS011;18781;51.550;5.418;2023-05-16T03:02:16;33.38;;;4.15;;
32295;SDS011;18781;51.550;5.418;2023-05-16T03:04:42;20.45;;;3.03;;
32295;SDS011;18781;51.550;5.418;2023-05-16T03:07:07;23.45;;;3.05;;
32295;SDS011;18781;51.550;5.418;2023-05-16T03:09:33;20.50;;;3.05;;
32295;SDS011;18781;51.550;5.418;2023-05-16T03:11:59;27.48;;;3.13;;
32295;SDS011;18781;51.550;5.418;2023-05-16T03:14:24;22.92;;;3.35;;
32295;SDS011;18781;51.550;5.418;2023-05-16T03:16:50;19.20;;;3.08;;
32295;SDS011;18781;51.550;5.418;2023-05-16T03:19:15;19.17;;;3.03;;
32295;SDS011;18781;51.550;5.418;2023-05-16T03:21:41;20.88;;;2.83;;
32295;SDS011;18781;51.550;5.418;2023-05-16T03:24:07;16.20;;;2.88;;
32295;SDS011;18781;51.550;5.418;2023-05-16T03:26:32;22.25;;;2.95;;
32295;SDS011;18781;51.550;5.418;2023-05-16T03:28:58;21.05;;;2.90;;
32295;SDS011;18781;51.550;5.418;2023-05-16T03:31:23;24.27;;;3.67;;
32295;SDS011;18781;51.550;5.418;2023-05-16T03:33:49;23.92;;;3.38;;
32295;SDS011;18781;51.550;5.418;2023-05-16T03:36:15;33.53;;;4.53;;
32295;SDS011;18781;51.550;5.418;2023-05-16T03:38:40;16.23;;;2.92;;
32295;SDS011;18781;51.550;5.418;2023-05-16T03:41:06;25.85;;;3.08;;
32295;SDS011;18781;51.550;5.418;2023-05-16T03:43:32;24.17;;;3.50;;
32295;SDS011;18781;51.550;5.418;2023-05-16T03:45:57;16.45;;;3.13;;
32295;SDS011;18781;51.550;5.418;2023-05-16T03:48:25;22.60;;;3.60;;
32295;SDS011;18781;51.550;5.418;2023-05-16T03:50:51;16.88;;;2.65;;
32295;SDS011;18781;51.550;5.418;2023-05-16T03:53:16;27.45;;;3.15;;
32295;SDS011;18781;51.550;5.418;2023-05-16T03:55:42;31.20;;;3.70;;
32295;SDS011;18781;51.550;5.418;2023-05-16T03:58:07;20.67;;;3.60;;
32295;SDS011;18781;51.550;5.418;2023-05-16T04:00:33;23.23;;;3.20;;
32295;SDS011;18781;51.550;5.418;2023-05-16T04:03:00;17.88;;;2.72;;
32295;SDS011;18781;51.550;5.418;2023-05-16T04:05:26;21.35;;;3.78;;
32295;SDS011;18781;51.550;5.418;2023-05-16T04:07:52;24.40;;;3.50;;
32295;SDS011;18781;51.550;5.418;2023-05-16T04:10:17;21.33;;;3.00;;
32295;SDS011;18781;51.550;5.418;2023-05-16T04:12:43;17.63;;;3.35;;
32295;SDS011;18781;51.550;5.418;2023-05-16T04:15:08;18.55;;;2.97;;
32295;SDS011;18781;51.550;5.418;2023-05-16T04:17:34;19.45;;;2.80;;
32295;SDS011;18781;51.550;5.418;2023-05-16T04:20:00;24.85;;;3.42;;
32295;SDS011;18781;51.550;5.418;2023-05-16T04:22:26;21.10;;;3.33;;
32295;SDS011;18781;51.550;5.418;2023-05-16T04:24:52;14.82;;;3.25;;
32295;SDS011;18781;51.550;5.418;2023-05-16T04:27:17;30.23;;;3.72;;
32295;SDS011;18781;51.550;5.418;2023-05-16T04:29:43;17.45;;;3.40;;
32295;SDS011;18781;51.550;5.418;2023-05-16T04:32:09;22.00;;;3.03;;
32295;SDS011;18781;51.550;5.418;2023-05-16T04:34:35;19.85;;;2.80;;
32295;SDS011;18781;51.550;5.418;2023-05-16T04:37:04;22.95;;;3.67;;
32295;SDS011;18781;51.550;5.418;2023-05-16T04:39:31;12.95;;;2.90;;
32295;SDS011;18781;51.550;5.418;2023-05-16T04:41:58;20.48;;;3.30;;
32295;SDS011;18781;51.550;5.418;2023-05-16T04:44:25;16.15;;;3.42;;
32295;SDS011;18781;51.550;5.418;2023-05-16T04:46:51;21.90;;;3.22;;
32295;SDS011;18781;51.550;5.418;2023-05-16T04:49:17;17.45;;;2.90;;
32295;SDS011;18781;51.550;5.418;2023-05-16T04:51:43;17.05;;;2.92;;
32295;SDS011;18781;51.550;5.418;2023-05-16T04:54:09;21.40;;;3.33;;
32295;SDS011;18781;51.550;5.418;2023-05-16T04:56:34;26.38;;;2.92;;
32295;SDS011;18781;51.550;5.418;2023-05-16T04:59:00;15.30;;;3.00;;
32295;SDS011;18781;51.550;5.418;2023-05-16T05:01:26;24.88;;;3.15;;
32295;SDS011;18781;51.550;5.418;2023-05-16T05:03:52;20.40;;;3.42;;
32295;SDS011;18781;51.550;5.418;2023-05-16T05:06:17;20.80;;;3.47;;
32295;SDS011;18781;51.550;5.418;2023-05-16T05:08:43;22.83;;;3.03;;
32295;SDS011;18781;51.550;5.418;2023-05-16T05:11:08;14.73;;;2.63;;
32295;SDS011;18781;51.550;5.418;2023-05-16T05:13:34;19.40;;;2.83;;
32295;SDS011;18781;51.550;5.418;2023-05-16T05:15:59;25.88;;;4.22;;
32295;SDS011;18781;51.550;5.418;2023-05-16T05:18:28;14.13;;;1.98;;
32295;SDS011;18781;51.550;5.418;2023-05-16T05:20:54;18.05;;;2.97;;
32295;SDS011;18781;51.550;5.418;2023-05-16T05:23:19;22.75;;;3.42;;
32295;SDS011;18781;51.550;5.418;2023-05-16T05:25:45;19.33;;;3.20;;
32295;SDS011;18781;51.550;5.418;2023-05-16T05:28:11;24.50;;;3.78;;
32295;SDS011;18781;51.550;5.418;2023-05-16T05:30:37;29.00;;;3.17;;
32295;SDS011;18781;51.550;5.418;2023-05-16T05:33:02;28.65;;;3.88;;
32295;SDS011;18781;51.550;5.418;2023-05-16T05:35:28;18.58;;;3.22;;
32295;SDS011;18781;51.550;5.418;2023-05-16T05:37:53;27.83;;;3.38;;
32295;SDS011;18781;51.550;5.418;2023-05-16T05:40:19;21.60;;;3.15;;
32295;SDS011;18781;51.550;5.418;2023-05-16T05:42:45;16.88;;;2.50;;
32295;SDS011;18781;51.550;5.418;2023-05-16T05:45:10;19.88;;;2.97;;
32295;SDS011;18781;51.550;5.418;2023-05-16T05:47:36;22.17;;;2.58;;
32295;SDS011;18781;51.550;5.418;2023-05-16T05:50:02;21.67;;;2.80;;
32295;SDS011;18781;51.550;5.418;2023-05-16T05:52:28;18.90;;;2.33;;
32295;SDS011;18781;51.550;5.418;2023-05-16T05:54:54;22.60;;;3.72;;
32295;SDS011;18781;51.550;5.418;2023-05-16T05:57:19;21.73;;;2.80;;
32295;SDS011;18781;51.550;5.418;2023-05-16T05:59:45;21.88;;;3.05;;
32295;SDS011;18781;51.550;5.418;2023-05-16T06:02:11;16.63;;;2.65;;
32295;SDS011;18781;51.550;5.418;2023-05-16T06:04:37;19.23;;;3.17;;
32295;SDS011;18781;51.550;5.418;2023-05-16T06:07:02;25.13;;;3.63;;
32295;SDS011;18781;51.550;5.418;2023-05-16T06:09:28;21.95;;;3.05;;
32295;SDS011;18781;51.550;5.418;2023-05-16T06:11:54;21.80;;;3.67;;
32295;SDS011;18781;51.550;5.418;2023-05-16T06:14:20;19.00;;;2.72;;
32295;SDS011;18781;51.550;5.418;2023-05-16T06:16:46;23.55;;;3.30;;
32295;SDS011;18781;51.550;5.418;2023-05-16T06:19:11;18.00;;;3.08;;
32295;SDS011;18781;51.550;5.418;2023-05-16T06:21:40;14.83;;;2.60;;
32295;SDS011;18781;51.550;5.418;2023-05-16T06:24:07;20.25;;;2.75;;
32295;SDS011;18781;51.550;5.418;2023-05-16T06:26:32;18.42;;;2.83;;
32295;SDS011;18781;51.550;5.418;2023-05-16T06:28:58;19.90;;;3.35;;
32295;SDS011;18781;51.550;5.418;2023-05-16T06:31:24;20.50;;;2.88;;
32295;SDS011;18781;51.550;5.418;2023-05-16T06:33:49;18.67;;;3.28;;
32295;SDS011;18781;51.550;5.418;2023-05-16T06:36:15;17.45;;;2.50;;
32295;SDS011;18781;51.550;5.418;2023-05-16T06:38:40;14.98;;;2.30;;
32295;SDS011;18781;51.550;5.418;2023-05-16T06:41:06;15.35;;;2.97;;
32295;SDS011;18781;51.550;5.418;2023-05-16T06:43:31;18.52;;;2.67;;
32295;SDS011;18781;51.550;5.418;2023-05-16T06:45:57;15.55;;;2.53;;
32295;SDS011;18781;51.550;5.418;2023-05-16T06:48:23;13.93;;;2.53;;
32295;SDS011;18781;51.550;5.418;2023-05-16T06:50:48;14.77;;;2.53;;
32295;SDS011;18781;51.550;5.418;2023-05-16T06:53:17;13.60;;;2.17;;
32295;SDS011;18781;51.550;5.418;2023-05-16T06:55:43;13.30;;;2.50;;
32295;SDS011;18781;51.550;5.418;2023-05-16T06:58:09;15.68;;;2.35;;
32295;SDS011;18781;51.550;5.418;2023-05-16T07:00:35;15.68;;;2.20;;
32295;SDS011;18781;51.550;5.418;2023-05-16T07:03:00;13.77;;;2.17;;
32295;SDS011;18781;51.550;5.418;2023-05-16T07:05:27;13.35;;;1.92;;
32295;SDS011;18781;51.550;5.418;2023-05-16T07:07:53;16.35;;;2.03;;
32295;SDS011;18781;51.550;5.418;2023-05-16T07:10:19;19.40;;;2.55;;
32295;SDS011;18781;51.550;5.418;2023-05-16T07:12:45;18.60;;;2.00;;
32295;SDS011;18781;51.550;5.418;2023-05-16T07:15:11;12.10;;;1.90;;
32295;SDS011;18781;51.550;5.418;2023-05-16T07:17:36;17.33;;;2.75;;
32295;SDS011;18781;51.550;5.418;2023-05-16T07:20:02;14.95;;;2.22;;
32295;SDS011;18781;51.550;5.418;2023-05-16T07:22:29;17.33;;;2.40;;
32295;SDS011;18781;51.550;5.418;2023-05-16T07:24:54;14.48;;;2.28;;
32295;SDS011;18781;51.550;5.418;2023-05-16T07:27:21;12.43;;;1.80;;
32295;SDS011;18781;51.550;5.418;2023-05-16T07:29:47;18.27;;;2.17;;
32295;SDS011;18781;51.550;5.418;2023-05-16T07:32:12;16.88;;;2.63;;
32295;SDS011;18781;51.550;5.418;2023-05-16T07:34:38;15.05;;;1.73;;
32295;SDS011;18781;51.550;5.418;2023-05-16T07:37:03;18.55;;;2.20;;
32295;SDS011;18781;51.550;5.418;2023-05-16T07:39:31;17.95;;;2.15;;
32295;SDS011;18781;51.550;5.418;2023-05-16T07:41:57;7.60;;;1.98;;
32295;SDS011;18781;51.550;5.418;2023-05-16T07:44:22;13.02;;;2.42;;
32295;SDS011;18781;51.550;5.418;2023-05-16T07:46:48;8.23;;;1.80;;
32295;SDS011;18781;51.550;5.418;2023-05-16T07:49:14;18.38;;;2.60;;
32295;SDS011;18781;51.550;5.418;2023-05-16T07:51:40;10.25;;;1.80;;
32295;SDS011;18781;51.550;5.418;2023-05-16T07:54:05;12.25;;;1.80;;
32295;SDS011;18781;51.550;5.418;2023-05-16T07:56:31;16.80;;;1.92;;
32295;SDS011;18781;51.550;5.418;2023-05-16T07:58:57;15.77;;;1.70;;
32295;SDS011;18781;51.550;5.418;2023-05-16T08:01:23;12.07;;;1.80;;
32295;SDS011;18781;51.550;5.418;2023-05-16T08:03:49;17.60;;;2.28;;
32295;SDS011;18781;51.550;5.418;2023-05-16T08:06:16;12.60;;;1.70;;
32295;SDS011;18781;51.550;5.418;2023-05-16T08:08:41;9.25;;;1.90;;
32295;SDS011;18781;51.550;5.418;2023-05-16T08:11:07;17.10;;;2.10;;
32295;SDS011;18781;51.550;5.418;2023-05-16T08:13:33;12.38;;;2.20;;
32295;SDS011;18781;51.550;5.418;2023-05-16T08:15:58;13.43;;;1.60;;
32295;SDS011;18781;51.550;5.418;2023-05-16T08:18:24;10.15;;;1.55;;
32295;SDS011;18781;51.550;5.418;2023-05-16T08:20:49;13.18;;;2.15;;
32295;SDS011;18781;51.550;5.418;2023-05-16T08:23:15;17.17;;;1.95;;
32295;SDS011;18781;51.550;5.418;2023-05-16T08:25:40;14.32;;;2.33;;
32295;SDS011;18781;51.550;5.418;2023-05-16T08:28:06;9.60;;;1.70;;
32295;SDS011;18781;51.550;5.418;2023-05-16T08:30:32;12.93;;;2.00;;
32295;SDS011;18781;51.550;5.418;2023-05-16T08:32:57;10.98;;;1.85;;
32295;SDS011;18781;51.550;5.418;2023-05-16T08:35:23;12.32;;;1.95;;
32295;SDS011;18781;51.550;5.418;2023-05-16T08:37:48;9.30;;;1.52;;
32295;SDS011;18781;51.550;5.418;2023-05-16T08:40:14;14.18;;;1.98;;
32295;SDS011;18781;51.550;5.418;2023-05-16T08:42:40;9.63;;;1.60;;
32295;SDS011;18781;51.550;5.418;2023-05-16T08:45:06;9.80;;;1.80;;
32295;SDS011;18781;51.550;5.418;2023-05-16T08:47:32;8.18;;;1.50;;
32295;SDS011;18781;51.550;5.418;2023-05-16T08:50:01;14.90;;;1.80;;
32295;SDS011;18781;51.550;5.418;2023-05-16T08:52:29;7.07;;;1.40;;
32295;SDS011;18781;51.550;5.418;2023-05-16T08:54:58;13.38;;;2.10;;
32295;SDS011;18781;51.550;5.418;2023-05-16T08:57:29;10.90;;;2.30;;
32295;SDS011;18781;51.550;5.418;2023-05-16T08:59:56;11.57;;;1.77;;
32295;SDS011;18781;51.550;5.418;2023-05-16T09:02:23;10.95;;;2.00;;
32295;SDS011;18781;51.550;5.418;2023-05-16T09:04:49;8.32;;;1.75;;
32295;SDS011;18781;51.550;5.418;2023-05-16T09:07:14;6.65;;;1.65;;
32295;SDS011;18781;51.550;5.418;2023-05-16T09:09:40;9.55;;;1.98;;
32295;SDS011;18781;51.550;5.418;2023-05-16T09:12:06;11.77;;;1.92;;
32295;SDS011;18781;51.550;5.418;2023-05-16T09:14:32;12.05;;;2.22;;
32295;SDS011;18781;51.550;5.418;2023-05-16T09:17:05;14.63;;;2.00;;
32295;SDS011;18781;51.550;5.418;2023-05-16T09:19:36;15.02;;;1.95;;
32295;SDS011;18781;51.550;5.418;2023-05-16T09:22:06;8.50;;;1.80;;
32295;SDS011;18781;51.550;5.418;2023-05-16T09:24:36;18.00;;;2.10;;
32295;SDS011;18781;51.550;5.418;2023-05-16T09:27:06;11.13;;;1.83;;
32295;SDS011;18781;51.550;5.418;2023-05-16T09:29:33;14.20;;;2.00;;
32295;SDS011;18781;51.550;5.418;2023-05-16T09:32:11;11.25;;;1.73;;
32295;SDS011;18781;51.550;5.418;2023-05-16T09:34:44;8.25;;;1.65;;
32295;SDS011;18781;51.550;5.418;2023-05-16T09:37:13;6.63;;;1.73;;
32295;SDS011;18781;51.550;5.418;2023-05-16T09:39:49;14.23;;;2.22;;
32295;SDS011;18781;51.550;5.418;2023-05-16T09:42:16;13.82;;;2.00;;
32295;SDS011;18781;51.550;5.418;2023-05-16T09:44:49;10.25;;;1.75;;
32295;SDS011;18781;51.550;5.418;2023-05-16T09:47:20;9.63;;;2.17;;
32295;SDS011;18781;51.550;5.418;2023-05-16T09:49:49;8.20;;;1.63;;
32295;SDS011;18781;51.550;5.418;2023-05-16T09:52:17;11.82;;;1.90;;
32295;SDS011;18781;51.550;5.418;2023-05-16T09:54:42;11.25;;;1.65;;
32295;SDS011;18781;51.550;5.418;2023-05-16T09:57:10;15.32;;;2.10;;
32295;SDS011;18781;51.550;5.418;2023-05-16T09:59:38;10.40;;;1.77;;
32295;SDS011;18781;51.550;5.418;2023-05-16T10:02:07;16.67;;;2.23;;
32295;SDS011;18781;51.550;5.418;2023-05-16T10:04:33;12.02;;;2.10;;
32295;SDS011;18781;51.550;5.418;2023-05-16T10:07:00;6.45;;;1.55;;
32295;SDS011;18781;51.550;5.418;2023-05-16T10:09:28;9.90;;;1.50;;
32295;SDS011;18781;51.550;5.418;2023-05-16T10:11:59;10.57;;;1.67;;
32295;SDS011;18781;51.550;5.418;2023-05-16T10:14:34;9.25;;;1.55;;
32295;SDS011;18781;51.550;5.418;2023-05-16T10:17:02;9.93;;;1.75;;
32295;SDS011;18781;51.550;5.418;2023-05-16T10:19:31;14.48;;;1.80;;
32295;SDS011;18781;51.550;5.418;2023-05-16T10:21:59;8.02;;;1.48;;
32295;SDS011;18781;51.550;5.418;2023-05-16T10:24:42;14.20;;;1.80;;
32295;SDS011;18781;51.550;5.418;2023-05-16T10:27:13;9.23;;;1.45;;
32295;SDS011;18781;51.550;5.418;2023-05-16T10:29:39;7.55;;;1.75;;
32295;SDS011;18781;51.550;5.418;2023-05-16T10:32:06;7.65;;;1.63;;
32295;SDS011;18781;51.550;5.418;2023-05-16T10:34:33;12.18;;;2.33;;
32295;SDS011;18781;51.550;5.418;2023-05-16T10:36:59;7.05;;;1.38;;
32295;SDS011;18781;51.550;5.418;2023-05-16T10:39:25;14.82;;;1.95;;
32295;SDS011;18781;51.550;5.418;2023-05-16T10:41:52;6.10;;;1.35;;
32295;SDS011;18781;51.550;5.418;2023-05-16T10:44:18;10.63;;;1.90;;
32295;SDS011;18781;51.550;5.418;2023-05-16T10:46:45;12.63;;;1.45;;
32295;SDS011;18781;51.550;5.418;2023-05-16T10:49:21;11.85;;;1.80;;
32295;SDS011;18781;51.550;5.418;2023-05-16T10:52:07;6.50;;;1.50;;
32295;SDS011;18781;51.550;5.418;2023-05-16T10:54:41;16.13;;;2.15;;
32295;SDS011;18781;51.550;5.418;2023-05-16T10:57:11;10.13;;;1.50;;
32295;SDS011;18781;51.550;5.418;2023-05-16T10:59:42;11.50;;;1.63;;
32295;SDS011;18781;51.550;5.418;2023-05-16T11:04:57;6.00;;;1.58;;
32295;SDS011;18781;51.550;5.418;2023-05-16T11:07:24;10.75;;;1.83;;
32295;SDS011;18781;51.550;5.418;2023-05-16T11:10:07;10.65;;;1.80;;
32295;SDS011;18781;51.550;5.418;2023-05-16T11:12:41;12.85;;;1.58;;
32295;SDS011;18781;51.550;5.418;2023-05-16T11:15:16;8.63;;;1.60;;
32295;SDS011;18781;51.550;5.418;2023-05-16T11:17:42;9.18;;;1.80;;
32295;SDS011;18781;51.550;5.418;2023-05-16T11:20:09;8.00;;;1.67;;
32295;SDS011;18781;51.550;5.418;2023-05-16T11:22:50;12.32;;;2.13;;
32295;SDS011;18781;51.550;5.418;2023-05-16T11:25:16;8.50;;;1.67;;
32295;SDS011;18781;51.550;5.418;2023-05-16T11:28:00;11.43;;;2.10;;
32295;SDS011;18781;51.550;5.418;2023-05-16T11:30:25;9.25;;;1.92;;
32295;SDS011;18781;51.550;5.418;2023-05-16T11:32:51;12.00;;;1.67;;
32295;SDS011;18781;51.550;5.418;2023-05-16T11:35:19;7.47;;;1.67;;
32295;SDS011;18781;51.550;5.418;2023-05-16T11:37:46;14.13;;;2.03;;
32295;SDS011;18781;51.550;5.418;2023-05-16T11:40:11;11.88;;;2.00;;
32295;SDS011;18781;51.550;5.418;2023-05-16T11:42:40;6.18;;;1.40;;
32295;SDS011;18781;51.550;5.418;2023-05-16T11:45:10;10.13;;;1.80;;
32295;SDS011;18781;51.550;5.418;2023-05-16T11:47:39;9.30;;;2.05;;
32295;SDS011;18781;51.550;5.418;2023-05-16T11:50:12;7.97;;;1.90;;
32295;SDS011;18781;51.550;5.418;2023-05-16T11:52:41;14.15;;;2.28;;
32295;SDS011;18781;51.550;5.418;2023-05-16T11:55:08;11.57;;;2.10;;
32295;SDS011;18781;51.550;5.418;2023-05-16T11:57:35;14.50;;;1.88;;
32295;SDS011;18781;51.550;5.418;2023-05-16T12:00:03;10.35;;;1.80;;
32295;SDS011;18781;51.550;5.418;2023-05-16T12:02:35;7.18;;;1.52;;
32295;SDS011;18781;51.550;5.418;2023-05-16T12:05:05;11.52;;;2.00;;
32295;SDS011;18781;51.550;5.418;2023-05-16T12:07:33;7.38;;;1.70;;
32295;SDS011;18781;51.550;5.418;2023-05-16T12:10:03;9.10;;;2.15;;
32295;SDS011;18781;51.550;5.418;2023-05-16T12:12:33;9.68;;;2.20;;
32295;SDS011;18781;51.550;5.418;2023-05-16T12:15:01;10.98;;;1.80;;
32295;SDS011;18781;51.550;5.418;2023-05-16T12:17:28;13.95;;;1.88;;
32295;SDS011;18781;51.550;5.418;2023-05-16T12:19:53;10.38;;;1.83;;
32295;SDS011;18781;51.550;5.418;2023-05-16T12:22:19;7.30;;;1.48;;
32295;SDS011;18781;51.550;5.418;2023-05-16T12:24:45;6.13;;;1.80;;
32295;SDS011;18781;51.550;5.418;2023-05-16T12:27:10;14.02;;;2.05;;
32295;SDS011;18781;51.550;5.418;2023-05-16T12:29:37;9.10;;;1.77;;
32295;SDS011;18781;51.550;5.418;2023-05-16T12:32:02;9.43;;;1.85;;
32295;SDS011;18781;51.550;5.418;2023-05-16T12:34:31;9.68;;;1.80;;
32295;SDS011;18781;51.550;5.418;2023-05-16T12:36:57;10.80;;;1.95;;
32295;SDS011;18781;51.550;5.418;2023-05-16T12:39:23;12.38;;;1.88;;
32295;SDS011;18781;51.550;5.418;2023-05-16T12:41:49;8.60;;;1.88;;
32295;SDS011;18781;51.550;5.418;2023-05-16T12:44:15;9.35;;;1.95;;
32295;SDS011;18781;51.550;5.418;2023-05-16T12:46:43;9.55;;;1.80;;
32295;SDS011;18781;51.550;5.418;2023-05-16T12:49:10;9.50;;;1.77;;
32295;SDS011;18781;51.550;5.418;2023-05-16T12:51:37;10.40;;;2.03;;
32295;SDS011;18781;51.550;5.418;2023-05-16T12:54:06;11.32;;;1.80;;
32295;SDS011;18781;51.550;5.418;2023-05-16T12:56:34;12.55;;;2.13;;
32295;SDS011;18781;51.550;5.418;2023-05-16T12:58:59;8.98;;;1.70;;
32295;SDS011;18781;51.550;5.418;2023-05-16T13:01:25;8.45;;;1.73;;
32295;SDS011;18781;51.550;5.418;2023-05-16T13:03:51;7.78;;;1.90;;
32295;SDS011;18781;51.550;5.418;2023-05-16T13:06:17;8.23;;;1.88;;
32295;SDS011;18781;51.550;5.418;2023-05-16T13:08:42;8.43;;;1.80;;
32295;SDS011;18781;51.550;5.418;2023-05-16T13:11:08;12.18;;;1.58;;
32295;SDS011;18781;51.550;5.418;2023-05-16T13:13:33;8.25;;;1.67;;
32295;SDS011;18781;51.550;5.418;2023-05-16T13:15:59;7.95;;;1.98;;
32295;SDS011;18781;51.550;5.418;2023-05-16T13:18:25;10.90;;;2.13;;
32295;SDS011;18781;51.550;5.418;2023-05-16T13:20:51;9.23;;;1.95;;
32295;SDS011;18781;51.550;5.418;2023-05-16T13:23:16;8.75;;;1.83;;
32295;SDS011;18781;51.550;5.418;2023-05-16T13:25:42;12.65;;;1.70;;
32295;SDS011;18781;51.550;5.418;2023-05-16T13:28:08;8.35;;;1.98;;
32295;SDS011;18781;51.550;5.418;2023-05-16T13:30:34;10.15;;;2.03;;
32295;SDS011;18781;51.550;5.418;2023-05-16T13:33:01;9.18;;;1.80;;
32295;SDS011;18781;51.550;5.418;2023-05-16T13:35:26;11.32;;;2.13;;
32295;SDS011;18781;51.550;5.418;2023-05-16T13:37:52;5.22;;;1.90;;
32295;SDS011;18781;51.550;5.418;2023-05-16T13:40:18;14.82;;;2.05;;
32295;SDS011;18781;51.550;5.418;2023-05-16T13:42:44;8.32;;;1.85;;
32295;SDS011;18781;51.550;5.418;2023-05-16T13:45:10;6.70;;;1.63;;
32295;SDS011;18781;51.550;5.418;2023-05-16T13:47:36;7.78;;;1.70;;
32295;SDS011;18781;51.550;5.418;2023-05-16T13:50:03;13.30;;;1.98;;
32295;SDS011;18781;51.550;5.418;2023-05-16T13:52:33;8.10;;;2.00;;
32295;SDS011;18781;51.550;5.418;2023-05-16T13:54:59;11.65;;;1.90;;
32295;SDS011;18781;51.550;5.418;2023-05-16T13:57:24;9.25;;;1.98;;
32295;SDS011;18781;51.550;5.418;2023-05-16T13:59:51;10.73;;;2.28;;
32295;SDS011;18781;51.550;5.418;2023-05-16T14:02:17;10.35;;;2.15;;
32295;SDS011;18781;51.550;5.418;2023-05-16T14:04:43;9.02;;;1.98;;
32295;SDS011;18781;51.550;5.418;2023-05-16T14:07:08;7.53;;;1.63;;
32295;SDS011;18781;51.550;5.418;2023-05-16T14:09:34;6.93;;;1.75;;
32295;SDS011;18781;51.550;5.418;2023-05-16T14:12:03;5.77;;;1.87;;
32295;SDS011;18781;51.550;5.418;2023-05-16T14:14:34;14.23;;;2.40;;
32295;SDS011;18781;51.550;5.418;2023-05-16T14:17:00;13.18;;;2.22;;
32295;SDS011;18781;51.550;5.418;2023-05-16T14:19:27;10.70;;;5.25;;
32295;SDS011;18781;51.550;5.418;2023-05-16T14:21:53;9.23;;;2.28;;
32295;SDS011;18781;51.550;5.418;2023-05-16T14:24:19;7.70;;;1.90;;
32295;SDS011;18781;51.550;5.418;2023-05-16T14:26:45;9.40;;;1.88;;
32295;SDS011;18781;51.550;5.418;2023-05-16T14:29:10;7.55;;;1.80;;
32295;SDS011;18781;51.550;5.418;2023-05-16T14:31:37;8.27;;;1.60;;
32295;SDS011;18781;51.550;5.418;2023-05-16T14:34:03;10.07;;;1.55;;
32295;SDS011;18781;51.550;5.418;2023-05-16T14:36:29;13.20;;;1.67;;
32295;SDS011;18781;51.550;5.418;2023-05-16T14:38:55;7.70;;;1.70;;
32295;SDS011;18781;51.550;5.418;2023-05-16T14:41:21;10.15;;;1.58;;
32295;SDS011;18781;51.550;5.418;2023-05-16T14:43:47;8.63;;;1.80;;
32295;SDS011;18781;51.550;5.418;2023-05-16T14:46:13;10.68;;;1.83;;
32295;SDS011;18781;51.550;5.418;2023-05-16T14:48:38;9.95;;;1.70;;
32295;SDS011;18781;51.550;5.418;2023-05-16T14:51:05;6.78;;;1.55;;
32295;SDS011;18781;51.550;5.418;2023-05-16T14:53:30;8.13;;;1.50;;
32295;SDS011;18781;51.550;5.418;2023-05-16T14:55:57;8.40;;;1.48;;